sensor_id;sensor_type;location;lat;lon;timestamp;P1;durP1;ratioP1;P2;durP2;ratioP2
33074;SDS011;19433;51.292;6.868;2023-07-31T00:00:11;6.80;;;3.73;;
33074;SDS011;19433;51.292;6.868;2023-07-31T00:02:37;5.73;;;4.00;;
33074;SDS011;19433;51.292;6.868;2023-07-31T00:05:03;6.67;;;4.10;;
33074;SDS011;19433;51.292;6.868;2023-07-31T00:07:28;5.27;;;3.80;;
33074;SDS011;19433;51.292;6.868;2023-07-31T00:09:53;6.03;;;3.90;;
33074;SDS011;19433;51.292;6.868;2023-07-31T00:12:19;5.80;;;3.67;;
33074;SDS011;19433;51.292;6.868;2023-07-31T00:14:45;5.93;;;3.90;;
33074;SDS011;19433;51.292;6.868;2023-07-31T00:17:10;5.73;;;4.23;;
33074;SDS011;19433;51.292;6.868;2023-07-31T00:19:36;6.03;;;3.60;;
33074;SDS011;19433;51.292;6.868;2023-07-31T00:22:01;9.33;;;4.47;;
33074;SDS011;19433;51.292;6.868;2023-07-31T00:24:27;6.90;;;4.50;;
33074;SDS011;19433;51.292;6.868;2023-07-31T00:26:52;11.53;;;3.63;;
33074;SDS011;19433;51.292;6.868;2023-07-31T00:29:17;8.87;;;4.20;;
33074;SDS011;19433;51.292;6.868;2023-07-31T00:31:43;11.30;;;5.20;;
33074;SDS011;19433;51.292;6.868;2023-07-31T00:34:08;5.23;;;3.47;;
33074;SDS011;19433;51.292;6.868;2023-07-31T00:36:33;9.43;;;3.60;;
33074;SDS011;19433;51.292;6.868;2023-07-31T00:38:59;7.03;;;4.23;;
33074;SDS011;19433;51.292;6.868;2023-07-31T00:41:24;6.90;;;3.80;;
33074;SDS011;19433;51.292;6.868;2023-07-31T00:43:49;10.37;;;4.60;;
33074;SDS011;19433;51.292;6.868;2023-07-31T00:46:14;7.20;;;4.03;;
33074;SDS011;19433;51.292;6.868;2023-07-31T00:48:40;5.43;;;4.10;;
33074;SDS011;19433;51.292;6.868;2023-07-31T00:51:06;5.60;;;3.27;;
33074;SDS011;19433;51.292;6.868;2023-07-31T00:53:32;5.97;;;3.40;;
33074;SDS011;19433;51.292;6.868;2023-07-31T00:55:58;5.43;;;4.03;;
33074;SDS011;19433;51.292;6.868;2023-07-31T00:58:24;6.83;;;4.47;;
33074;SDS011;19433;51.292;6.868;2023-07-31T01:00:49;8.60;;;3.30;;
33074;SDS011;19433;51.292;6.868;2023-07-31T01:03:15;8.73;;;4.30;;
33074;SDS011;19433;51.292;6.868;2023-07-31T01:06:01;7.70;;;4.20;;
33074;SDS011;19433;51.292;6.868;2023-07-31T01:11:56;6.23;;;3.93;;
33074;SDS011;19433;51.292;6.868;2023-07-31T01:14:22;8.03;;;4.17;;
33074;SDS011;19433;51.292;6.868;2023-07-31T01:16:48;7.80;;;4.00;;
33074;SDS011;19433;51.292;6.868;2023-07-31T01:19:14;8.00;;;3.63;;
33074;SDS011;19433;51.292;6.868;2023-07-31T01:27:26;8.00;;;3.87;;
33074;SDS011;19433;51.292;6.868;2023-07-31T01:32:42;8.07;;;3.50;;
33074;SDS011;19433;51.292;6.868;2023-07-31T01:35:10;5.33;;;3.23;;
33074;SDS011;19433;51.292;6.868;2023-07-31T01:37:35;7.00;;;3.80;;
33074;SDS011;19433;51.292;6.868;2023-07-31T01:40:01;5.77;;;3.23;;
33074;SDS011;19433;51.292;6.868;2023-07-31T01:42:26;5.57;;;3.50;;
33074;SDS011;19433;51.292;6.868;2023-07-31T01:44:51;7.70;;;3.83;;
33074;SDS011;19433;51.292;6.868;2023-07-31T01:47:16;5.60;;;3.80;;
33074;SDS011;19433;51.292;6.868;2023-07-31T01:49:42;7.30;;;3.60;;
33074;SDS011;19433;51.292;6.868;2023-07-31T01:52:07;6.73;;;4.20;;
33074;SDS011;19433;51.292;6.868;2023-07-31T01:54:32;6.70;;;3.50;;
33074;SDS011;19433;51.292;6.868;2023-07-31T01:56:58;5.87;;;3.50;;
33074;SDS011;19433;51.292;6.868;2023-07-31T01:59:23;11.43;;;4.00;;
33074;SDS011;19433;51.292;6.868;2023-07-31T02:01:49;8.00;;;3.27;;
33074;SDS011;19433;51.292;6.868;2023-07-31T02:04:14;6.10;;;3.70;;
33074;SDS011;19433;51.292;6.868;2023-07-31T02:06:39;6.17;;;3.80;;
33074;SDS011;19433;51.292;6.868;2023-07-31T02:09:05;8.67;;;3.30;;
33074;SDS011;19433;51.292;6.868;2023-07-31T02:11:30;6.70;;;3.80;;
33074;SDS011;19433;51.292;6.868;2023-07-31T02:13:55;7.43;;;3.50;;
33074;SDS011;19433;51.292;6.868;2023-07-31T02:16:20;7.40;;;3.50;;
33074;SDS011;19433;51.292;6.868;2023-07-31T02:18:46;4.60;;;3.57;;
33074;SDS011;19433;51.292;6.868;2023-07-31T02:21:11;8.97;;;4.13;;
33074;SDS011;19433;51.292;6.868;2023-07-31T02:23:36;9.43;;;3.77;;
33074;SDS011;19433;51.292;6.868;2023-07-31T02:26:02;5.80;;;3.80;;
33074;SDS011;19433;51.292;6.868;2023-07-31T02:28:27;8.00;;;3.00;;
33074;SDS011;19433;51.292;6.868;2023-07-31T02:30:53;8.30;;;3.40;;
33074;SDS011;19433;51.292;6.868;2023-07-31T02:33:19;6.70;;;3.90;;
33074;SDS011;19433;51.292;6.868;2023-07-31T02:35:44;7.17;;;3.23;;
33074;SDS011;19433;51.292;6.868;2023-07-31T02:38:09;5.50;;;3.47;;
33074;SDS011;19433;51.292;6.868;2023-07-31T02:40:35;5.43;;;3.20;;
33074;SDS011;19433;51.292;6.868;2023-07-31T02:43:00;4.90;;;3.90;;
33074;SDS011;19433;51.292;6.868;2023-07-31T02:45:25;7.50;;;4.20;;
33074;SDS011;19433;51.292;6.868;2023-07-31T02:47:51;5.87;;;4.40;;
33074;SDS011;19433;51.292;6.868;2023-07-31T02:50:16;6.60;;;3.80;;
33074;SDS011;19433;51.292;6.868;2023-07-31T02:52:41;7.07;;;3.83;;
33074;SDS011;19433;51.292;6.868;2023-07-31T02:55:07;6.80;;;4.13;;
33074;SDS011;19433;51.292;6.868;2023-07-31T02:57:32;10.03;;;3.70;;
33074;SDS011;19433;51.292;6.868;2023-07-31T02:59:57;5.57;;;3.20;;
33074;SDS011;19433;51.292;6.868;2023-07-31T03:02:23;5.10;;;3.73;;
33074;SDS011;19433;51.292;6.868;2023-07-31T03:04:48;5.97;;;4.20;;
33074;SDS011;19433;51.292;6.868;2023-07-31T03:07:13;4.43;;;2.97;;
33074;SDS011;19433;51.292;6.868;2023-07-31T03:09:38;8.40;;;3.57;;
33074;SDS011;19433;51.292;6.868;2023-07-31T03:12:04;4.23;;;3.83;;
33074;SDS011;19433;51.292;6.868;2023-07-31T03:14:29;5.40;;;3.03;;
33074;SDS011;19433;51.292;6.868;2023-07-31T03:16:55;6.00;;;4.23;;
33074;SDS011;19433;51.292;6.868;2023-07-31T03:19:20;6.33;;;3.60;;
33074;SDS011;19433;51.292;6.868;2023-07-31T03:21:45;4.17;;;3.30;;
33074;SDS011;19433;51.292;6.868;2023-07-31T03:24:11;8.70;;;3.77;;
33074;SDS011;19433;51.292;6.868;2023-07-31T03:26:37;8.73;;;3.83;;
33074;SDS011;19433;51.292;6.868;2023-07-31T03:29:02;5.80;;;3.73;;
33074;SDS011;19433;51.292;6.868;2023-07-31T03:31:28;4.17;;;3.63;;
33074;SDS011;19433;51.292;6.868;2023-07-31T03:33:53;5.30;;;3.90;;
33074;SDS011;19433;51.292;6.868;2023-07-31T03:36:18;7.57;;;4.20;;
33074;SDS011;19433;51.292;6.868;2023-07-31T03:38:43;8.40;;;3.83;;
33074;SDS011;19433;51.292;6.868;2023-07-31T03:41:09;7.00;;;3.50;;
33074;SDS011;19433;51.292;6.868;2023-07-31T03:43:35;3.23;;;2.93;;
33074;SDS011;19433;51.292;6.868;2023-07-31T03:46:00;5.13;;;3.47;;
33074;SDS011;19433;51.292;6.868;2023-07-31T03:48:27;7.77;;;3.33;;
33074;SDS011;19433;51.292;6.868;2023-07-31T03:50:52;4.63;;;3.50;;
33074;SDS011;19433;51.292;6.868;2023-07-31T03:53:18;7.80;;;4.20;;
33074;SDS011;19433;51.292;6.868;2023-07-31T03:55:43;5.20;;;3.50;;
33074;SDS011;19433;51.292;6.868;2023-07-31T03:58:08;4.17;;;3.37;;
33074;SDS011;19433;51.292;6.868;2023-07-31T04:00:34;4.40;;;3.93;;
33074;SDS011;19433;51.292;6.868;2023-07-31T04:02:59;4.20;;;3.07;;
33074;SDS011;19433;51.292;6.868;2023-07-31T04:05:25;4.40;;;3.40;;
33074;SDS011;19433;51.292;6.868;2023-07-31T04:07:51;5.57;;;3.67;;
33074;SDS011;19433;51.292;6.868;2023-07-31T04:10:16;8.33;;;3.33;;
33074;SDS011;19433;51.292;6.868;2023-07-31T04:12:42;6.33;;;3.93;;
33074;SDS011;19433;51.292;6.868;2023-07-31T04:15:07;9.33;;;3.70;;
33074;SDS011;19433;51.292;6.868;2023-07-31T04:17:32;4.33;;;3.93;;
33074;SDS011;19433;51.292;6.868;2023-07-31T04:19:58;5.53;;;3.97;;
33074;SDS011;19433;51.292;6.868;2023-07-31T04:22:23;7.53;;;3.90;;
33074;SDS011;19433;51.292;6.868;2023-07-31T04:24:48;6.00;;;3.27;;
33074;SDS011;19433;51.292;6.868;2023-07-31T04:27:14;6.37;;;4.10;;
33074;SDS011;19433;51.292;6.868;2023-07-31T04:29:39;5.63;;;3.63;;
33074;SDS011;19433;51.292;6.868;2023-07-31T04:32:07;4.97;;;3.80;;
33074;SDS011;19433;51.292;6.868;2023-07-31T04:34:32;4.00;;;3.60;;
33074;SDS011;19433;51.292;6.868;2023-07-31T04:36:57;4.13;;;3.30;;
33074;SDS011;19433;51.292;6.868;2023-07-31T04:39:23;5.40;;;3.50;;
33074;SDS011;19433;51.292;6.868;2023-07-31T04:41:48;8.00;;;4.30;;
33074;SDS011;19433;51.292;6.868;2023-07-31T04:44:13;6.47;;;3.60;;
33074;SDS011;19433;51.292;6.868;2023-07-31T04:46:39;5.60;;;4.70;;
33074;SDS011;19433;51.292;6.868;2023-07-31T04:49:04;4.03;;;3.10;;
33074;SDS011;19433;51.292;6.868;2023-07-31T04:51:29;5.20;;;3.33;;
33074;SDS011;19433;51.292;6.868;2023-07-31T04:53:55;4.53;;;3.73;;
33074;SDS011;19433;51.292;6.868;2023-07-31T04:56:21;7.50;;;3.70;;
33074;SDS011;19433;51.292;6.868;2023-07-31T04:58:46;6.00;;;3.70;;
33074;SDS011;19433;51.292;6.868;2023-07-31T05:01:12;4.67;;;3.50;;
33074;SDS011;19433;51.292;6.868;2023-07-31T05:03:37;9.80;;;4.67;;
33074;SDS011;19433;51.292;6.868;2023-07-31T05:06:02;5.70;;;4.13;;
33074;SDS011;19433;51.292;6.868;2023-07-31T05:08:28;5.20;;;4.07;;
33074;SDS011;19433;51.292;6.868;2023-07-31T05:10:53;6.73;;;3.73;;
33074;SDS011;19433;51.292;6.868;2023-07-31T05:13:18;5.70;;;3.60;;
33074;SDS011;19433;51.292;6.868;2023-07-31T05:15:44;7.40;;;4.03;;
33074;SDS011;19433;51.292;6.868;2023-07-31T05:18:10;5.07;;;3.63;;
33074;SDS011;19433;51.292;6.868;2023-07-31T05:20:35;6.80;;;3.90;;
33074;SDS011;19433;51.292;6.868;2023-07-31T05:23:00;5.03;;;3.23;;
33074;SDS011;19433;51.292;6.868;2023-07-31T05:25:25;10.60;;;3.60;;
33074;SDS011;19433;51.292;6.868;2023-07-31T05:27:51;5.37;;;3.93;;
33074;SDS011;19433;51.292;6.868;2023-07-31T05:30:16;4.10;;;3.50;;
33074;SDS011;19433;51.292;6.868;2023-07-31T05:32:41;4.50;;;4.10;;
33074;SDS011;19433;51.292;6.868;2023-07-31T05:35:07;5.40;;;3.63;;
33074;SDS011;19433;51.292;6.868;2023-07-31T05:37:32;6.30;;;4.00;;
33074;SDS011;19433;51.292;6.868;2023-07-31T05:39:57;6.13;;;4.33;;
33074;SDS011;19433;51.292;6.868;2023-07-31T05:42:23;5.30;;;3.40;;
33074;SDS011;19433;51.292;6.868;2023-07-31T05:44:48;4.03;;;3.73;;
33074;SDS011;19433;51.292;6.868;2023-07-31T05:47:13;8.50;;;4.73;;
33074;SDS011;19433;51.292;6.868;2023-07-31T05:49:39;7.23;;;4.77;;
33074;SDS011;19433;51.292;6.868;2023-07-31T05:52:04;5.50;;;3.57;;
33074;SDS011;19433;51.292;6.868;2023-07-31T05:54:32;6.83;;;4.60;;
33074;SDS011;19433;51.292;6.868;2023-07-31T05:56:57;6.00;;;3.80;;
33074;SDS011;19433;51.292;6.868;2023-07-31T05:59:23;8.57;;;3.60;;
33074;SDS011;19433;51.292;6.868;2023-07-31T06:01:48;4.20;;;3.77;;
33074;SDS011;19433;51.292;6.868;2023-07-31T06:04:13;4.20;;;3.80;;
33074;SDS011;19433;51.292;6.868;2023-07-31T06:06:39;4.73;;;3.47;;
33074;SDS011;19433;51.292;6.868;2023-07-31T06:09:04;4.33;;;3.63;;
33074;SDS011;19433;51.292;6.868;2023-07-31T06:11:30;6.53;;;4.60;;
33074;SDS011;19433;51.292;6.868;2023-07-31T06:13:55;6.00;;;3.87;;
33074;SDS011;19433;51.292;6.868;2023-07-31T06:16:20;4.60;;;3.53;;
33074;SDS011;19433;51.292;6.868;2023-07-31T06:18:46;4.77;;;3.40;;
33074;SDS011;19433;51.292;6.868;2023-07-31T06:21:12;5.97;;;4.30;;
33074;SDS011;19433;51.292;6.868;2023-07-31T06:23:37;5.93;;;3.87;;
33074;SDS011;19433;51.292;6.868;2023-07-31T06:26:02;5.00;;;4.00;;
33074;SDS011;19433;51.292;6.868;2023-07-31T06:28:28;4.40;;;3.70;;
33074;SDS011;19433;51.292;6.868;2023-07-31T06:30:57;4.77;;;4.37;;
33074;SDS011;19433;51.292;6.868;2023-07-31T06:33:23;6.00;;;4.60;;
33074;SDS011;19433;51.292;6.868;2023-07-31T06:35:48;4.90;;;3.23;;
33074;SDS011;19433;51.292;6.868;2023-07-31T06:38:13;5.90;;;3.57;;
33074;SDS011;19433;51.292;6.868;2023-07-31T06:40:38;2.97;;;2.70;;
33074;SDS011;19433;51.292;6.868;2023-07-31T06:43:04;5.47;;;3.20;;
33074;SDS011;19433;51.292;6.868;2023-07-31T06:45:36;4.90;;;3.20;;
33074;SDS011;19433;51.292;6.868;2023-07-31T06:48:02;5.80;;;3.80;;
33074;SDS011;19433;51.292;6.868;2023-07-31T06:50:28;4.40;;;3.30;;
33074;SDS011;19433;51.292;6.868;2023-07-31T06:52:54;4.80;;;3.87;;
33074;SDS011;19433;51.292;6.868;2023-07-31T06:55:20;4.93;;;3.17;;
33074;SDS011;19433;51.292;6.868;2023-07-31T06:57:47;5.23;;;3.87;;
33074;SDS011;19433;51.292;6.868;2023-07-31T07:00:13;5.70;;;4.27;;
33074;SDS011;19433;51.292;6.868;2023-07-31T07:02:39;3.67;;;3.23;;
33074;SDS011;19433;51.292;6.868;2023-07-31T07:05:04;4.27;;;2.60;;
33074;SDS011;19433;51.292;6.868;2023-07-31T07:07:31;3.47;;;3.13;;
33074;SDS011;19433;51.292;6.868;2023-07-31T07:09:57;9.43;;;3.90;;
33074;SDS011;19433;51.292;6.868;2023-07-31T07:12:24;8.67;;;4.23;;
33074;SDS011;19433;51.292;6.868;2023-07-31T07:14:49;5.03;;;3.70;;
33074;SDS011;19433;51.292;6.868;2023-07-31T07:17:15;4.33;;;3.67;;
33074;SDS011;19433;51.292;6.868;2023-07-31T07:19:40;5.20;;;3.47;;
33074;SDS011;19433;51.292;6.868;2023-07-31T07:22:07;4.07;;;3.77;;
33074;SDS011;19433;51.292;6.868;2023-07-31T07:24:33;4.67;;;4.27;;
33074;SDS011;19433;51.292;6.868;2023-07-31T07:26:58;5.97;;;3.00;;
33074;SDS011;19433;51.292;6.868;2023-07-31T07:29:23;5.30;;;3.80;;
33074;SDS011;19433;51.292;6.868;2023-07-31T07:31:49;4.17;;;3.20;;
33074;SDS011;19433;51.292;6.868;2023-07-31T07:34:14;5.07;;;3.17;;
33074;SDS011;19433;51.292;6.868;2023-07-31T07:36:39;5.30;;;3.93;;
33074;SDS011;19433;51.292;6.868;2023-07-31T07:39:04;5.10;;;4.03;;
33074;SDS011;19433;51.292;6.868;2023-07-31T07:41:30;6.63;;;3.40;;
33074;SDS011;19433;51.292;6.868;2023-07-31T07:43:55;3.83;;;2.90;;
33074;SDS011;19433;51.292;6.868;2023-07-31T07:46:20;6.10;;;3.83;;
33074;SDS011;19433;51.292;6.868;2023-07-31T07:48:46;8.20;;;3.93;;
33074;SDS011;19433;51.292;6.868;2023-07-31T07:51:11;4.07;;;3.30;;
33074;SDS011;19433;51.292;6.868;2023-07-31T07:53:36;3.87;;;3.57;;
33074;SDS011;19433;51.292;6.868;2023-07-31T07:56:01;2.70;;;2.40;;
33074;SDS011;19433;51.292;6.868;2023-07-31T07:58:27;5.23;;;2.50;;
33074;SDS011;19433;51.292;6.868;2023-07-31T08:00:52;2.53;;;1.97;;
33074;SDS011;19433;51.292;6.868;2023-07-31T08:03:17;4.80;;;3.03;;
33074;SDS011;19433;51.292;6.868;2023-07-31T08:05:43;5.87;;;2.80;;
33074;SDS011;19433;51.292;6.868;2023-07-31T08:08:13;2.97;;;2.73;;
33074;SDS011;19433;51.292;6.868;2023-07-31T08:10:40;4.53;;;4.13;;
33074;SDS011;19433;51.292;6.868;2023-07-31T08:13:05;4.33;;;3.13;;
33074;SDS011;19433;51.292;6.868;2023-07-31T08:15:30;9.30;;;3.90;;
33074;SDS011;19433;51.292;6.868;2023-07-31T08:17:55;4.87;;;3.63;;
33074;SDS011;19433;51.292;6.868;2023-07-31T08:20:21;4.80;;;3.13;;
33074;SDS011;19433;51.292;6.868;2023-07-31T08:22:46;5.33;;;3.33;;
33074;SDS011;19433;51.292;6.868;2023-07-31T08:25:11;4.00;;;2.97;;
33074;SDS011;19433;51.292;6.868;2023-07-31T08:27:37;3.77;;;3.40;;
33074;SDS011;19433;51.292;6.868;2023-07-31T08:30:02;4.50;;;3.27;;
33074;SDS011;19433;51.292;6.868;2023-07-31T08:32:28;3.50;;;2.93;;
33074;SDS011;19433;51.292;6.868;2023-07-31T08:34:53;4.20;;;3.23;;
33074;SDS011;19433;51.292;6.868;2023-07-31T08:37:18;3.47;;;2.90;;
33074;SDS011;19433;51.292;6.868;2023-07-31T08:39:43;3.63;;;2.93;;
33074;SDS011;19433;51.292;6.868;2023-07-31T08:42:08;5.03;;;3.10;;
33074;SDS011;19433;51.292;6.868;2023-07-31T08:44:34;4.27;;;3.53;;
33074;SDS011;19433;51.292;6.868;2023-07-31T08:47:00;4.37;;;3.40;;
33074;SDS011;19433;51.292;6.868;2023-07-31T08:49:26;4.60;;;3.00;;
33074;SDS011;19433;51.292;6.868;2023-07-31T08:51:52;7.40;;;3.40;;
33074;SDS011;19433;51.292;6.868;2023-07-31T08:54:19;5.83;;;3.20;;
33074;SDS011;19433;51.292;6.868;2023-07-31T08:56:46;3.73;;;2.93;;
33074;SDS011;19433;51.292;6.868;2023-07-31T08:59:11;4.10;;;3.53;;
33074;SDS011;19433;51.292;6.868;2023-07-31T09:01:39;4.40;;;2.97;;
33074;SDS011;19433;51.292;6.868;2023-07-31T09:04:12;3.57;;;3.27;;
33074;SDS011;19433;51.292;6.868;2023-07-31T09:06:39;2.87;;;2.60;;
33074;SDS011;19433;51.292;6.868;2023-07-31T09:09:04;5.43;;;3.50;;
33074;SDS011;19433;51.292;6.868;2023-07-31T09:11:30;3.30;;;3.00;;
33074;SDS011;19433;51.292;6.868;2023-07-31T09:13:56;3.80;;;3.33;;
33074;SDS011;19433;51.292;6.868;2023-07-31T09:16:28;3.87;;;3.57;;
33074;SDS011;19433;51.292;6.868;2023-07-31T09:18:57;3.10;;;2.80;;
33074;SDS011;19433;51.292;6.868;2023-07-31T09:21:23;2.70;;;2.50;;
33074;SDS011;19433;51.292;6.868;2023-07-31T09:23:49;4.23;;;3.33;;
33074;SDS011;19433;51.292;6.868;2023-07-31T09:26:37;4.13;;;3.27;;
33074;SDS011;19433;51.292;6.868;2023-07-31T09:29:05;4.77;;;3.67;;
33074;SDS011;19433;51.292;6.868;2023-07-31T09:34:03;3.17;;;2.60;;
33074;SDS011;19433;51.292;6.868;2023-07-31T09:36:31;3.50;;;2.97;;
33074;SDS011;19433;51.292;6.868;2023-07-31T09:38:59;3.80;;;3.40;;
33074;SDS011;19433;51.292;6.868;2023-07-31T09:41:27;3.50;;;3.00;;
33074;SDS011;19433;51.292;6.868;2023-07-31T09:43:55;2.97;;;2.77;;
33074;SDS011;19433;51.292;6.868;2023-07-31T09:46:20;4.53;;;4.13;;
33074;SDS011;19433;51.292;6.868;2023-07-31T09:48:46;5.07;;;2.60;;
33074;SDS011;19433;51.292;6.868;2023-07-31T09:51:12;5.50;;;3.47;;
33074;SDS011;19433;51.292;6.868;2023-07-31T09:53:37;3.20;;;2.90;;
33074;SDS011;19433;51.292;6.868;2023-07-31T09:56:02;2.93;;;2.70;;
33074;SDS011;19433;51.292;6.868;2023-07-31T09:58:29;3.23;;;2.93;;
33074;SDS011;19433;51.292;6.868;2023-07-31T10:00:59;2.93;;;2.73;;
33074;SDS011;19433;51.292;6.868;2023-07-31T10:03:26;2.93;;;2.63;;
33074;SDS011;19433;51.292;6.868;2023-07-31T10:05:55;3.23;;;2.90;;
33074;SDS011;19433;51.292;6.868;2023-07-31T10:08:21;3.47;;;2.80;;
33074;SDS011;19433;51.292;6.868;2023-07-31T10:10:51;4.40;;;3.23;;
33074;SDS011;19433;51.292;6.868;2023-07-31T10:13:17;4.83;;;3.23;;
33074;SDS011;19433;51.292;6.868;2023-07-31T10:15:43;3.20;;;2.90;;
33074;SDS011;19433;51.292;6.868;2023-07-31T10:18:09;2.83;;;2.60;;
33074;SDS011;19433;51.292;6.868;2023-07-31T10:20:36;3.33;;;2.83;;
33074;SDS011;19433;51.292;6.868;2023-07-31T10:23:02;3.77;;;3.30;;
33074;SDS011;19433;51.292;6.868;2023-07-31T10:25:28;3.33;;;2.67;;
33074;SDS011;19433;51.292;6.868;2023-07-31T10:27:55;4.30;;;2.87;;
33074;SDS011;19433;51.292;6.868;2023-07-31T10:30:23;2.80;;;2.60;;
33074;SDS011;19433;51.292;6.868;2023-07-31T10:32:51;4.33;;;2.83;;
33074;SDS011;19433;51.292;6.868;2023-07-31T10:35:18;4.00;;;3.13;;
33074;SDS011;19433;51.292;6.868;2023-07-31T10:37:44;2.87;;;2.67;;
33074;SDS011;19433;51.292;6.868;2023-07-31T10:40:10;4.80;;;2.97;;
33074;SDS011;19433;51.292;6.868;2023-07-31T10:42:47;5.17;;;3.30;;
33074;SDS011;19433;51.292;6.868;2023-07-31T10:45:23;3.90;;;3.17;;
33074;SDS011;19433;51.292;6.868;2023-07-31T10:47:51;4.67;;;3.83;;
33074;SDS011;19433;51.292;6.868;2023-07-31T10:50:24;3.50;;;3.20;;
33074;SDS011;19433;51.292;6.868;2023-07-31T10:52:51;5.03;;;3.20;;
33074;SDS011;19433;51.292;6.868;2023-07-31T10:58:05;4.40;;;3.43;;
33074;SDS011;19433;51.292;6.868;2023-07-31T11:00:31;4.43;;;3.20;;
33074;SDS011;19433;51.292;6.868;2023-07-31T11:03:01;3.60;;;2.80;;
33074;SDS011;19433;51.292;6.868;2023-07-31T11:05:40;3.73;;;2.77;;
33074;SDS011;19433;51.292;6.868;2023-07-31T11:08:16;4.57;;;3.20;;
33074;SDS011;19433;51.292;6.868;2023-07-31T11:10:44;3.97;;;2.80;;
33074;SDS011;19433;51.292;6.868;2023-07-31T11:13:10;4.10;;;2.80;;
33074;SDS011;19433;51.292;6.868;2023-07-31T11:15:35;3.53;;;2.60;;
33074;SDS011;19433;51.292;6.868;2023-07-31T11:18:01;3.27;;;2.73;;
33074;SDS011;19433;51.292;6.868;2023-07-31T11:20:35;4.57;;;2.70;;
33074;SDS011;19433;51.292;6.868;2023-07-31T11:23:02;3.17;;;2.63;;
33074;SDS011;19433;51.292;6.868;2023-07-31T11:25:31;2.60;;;2.10;;
33074;SDS011;19433;51.292;6.868;2023-07-31T11:27:57;2.50;;;2.30;;
33074;SDS011;19433;51.292;6.868;2023-07-31T11:30:28;4.67;;;2.37;;
33074;SDS011;19433;51.292;6.868;2023-07-31T11:32:54;4.00;;;2.20;;
33074;SDS011;19433;51.292;6.868;2023-07-31T11:35:20;3.07;;;2.30;;
33074;SDS011;19433;51.292;6.868;2023-07-31T11:37:45;2.30;;;2.10;;
33074;SDS011;19433;51.292;6.868;2023-07-31T11:40:11;4.77;;;2.53;;
33074;SDS011;19433;51.292;6.868;2023-07-31T11:42:37;2.57;;;2.37;;
33074;SDS011;19433;51.292;6.868;2023-07-31T11:45:03;2.10;;;1.60;;
33074;SDS011;19433;51.292;6.868;2023-07-31T11:47:32;2.50;;;2.30;;
33074;SDS011;19433;51.292;6.868;2023-07-31T11:50:00;2.53;;;1.83;;
33074;SDS011;19433;51.292;6.868;2023-07-31T11:52:26;2.87;;;2.00;;
33074;SDS011;19433;51.292;6.868;2023-07-31T11:54:53;4.33;;;2.33;;
33074;SDS011;19433;51.292;6.868;2023-07-31T11:57:19;2.43;;;2.23;;
33074;SDS011;19433;51.292;6.868;2023-07-31T11:59:45;2.27;;;1.87;;
33074;SDS011;19433;51.292;6.868;2023-07-31T12:02:11;3.60;;;1.63;;
33074;SDS011;19433;51.292;6.868;2023-07-31T12:04:36;2.00;;;1.90;;
33074;SDS011;19433;51.292;6.868;2023-07-31T12:07:02;3.20;;;2.00;;
33074;SDS011;19433;51.292;6.868;2023-07-31T12:09:27;1.87;;;1.70;;
33074;SDS011;19433;51.292;6.868;2023-07-31T12:11:52;2.70;;;2.43;;
33074;SDS011;19433;51.292;6.868;2023-07-31T12:14:24;1.97;;;1.60;;
33074;SDS011;19433;51.292;6.868;2023-07-31T12:19:21;1.80;;;1.70;;
33074;SDS011;19433;51.292;6.868;2023-07-31T12:21:47;1.70;;;1.60;;
33074;SDS011;19433;51.292;6.868;2023-07-31T12:24:13;2.20;;;1.87;;
33074;SDS011;19433;51.292;6.868;2023-07-31T12:26:38;1.70;;;1.50;;
33074;SDS011;19433;51.292;6.868;2023-07-31T12:29:04;3.07;;;1.93;;
33074;SDS011;19433;51.292;6.868;2023-07-31T12:31:33;1.73;;;1.63;;
33074;SDS011;19433;51.292;6.868;2023-07-31T12:33:59;1.70;;;1.60;;
33074;SDS011;19433;51.292;6.868;2023-07-31T12:36:24;2.20;;;2.10;;
33074;SDS011;19433;51.292;6.868;2023-07-31T12:38:50;2.40;;;1.80;;
33074;SDS011;19433;51.292;6.868;2023-07-31T12:41:17;2.40;;;2.10;;
33074;SDS011;19433;51.292;6.868;2023-07-31T12:43:43;3.03;;;1.90;;
33074;SDS011;19433;51.292;6.868;2023-07-31T12:46:09;2.33;;;2.13;;
33074;SDS011;19433;51.292;6.868;2023-07-31T12:48:35;3.20;;;2.13;;
33074;SDS011;19433;51.292;6.868;2023-07-31T12:51:01;1.87;;;1.77;;
33074;SDS011;19433;51.292;6.868;2023-07-31T12:53:27;5.43;;;1.90;;
33074;SDS011;19433;51.292;6.868;2023-07-31T12:55:54;2.40;;;2.20;;
33074;SDS011;19433;51.292;6.868;2023-07-31T12:58:20;2.23;;;1.67;;
33074;SDS011;19433;51.292;6.868;2023-07-31T13:00:45;1.73;;;1.63;;
33074;SDS011;19433;51.292;6.868;2023-07-31T13:03:11;2.73;;;2.30;;
33074;SDS011;19433;51.292;6.868;2023-07-31T13:05:36;2.07;;;1.97;;
33074;SDS011;19433;51.292;6.868;2023-07-31T13:08:01;2.73;;;2.50;;
33074;SDS011;19433;51.292;6.868;2023-07-31T13:10:27;2.63;;;2.17;;
33074;SDS011;19433;51.292;6.868;2023-07-31T13:12:53;2.90;;;2.13;;
33074;SDS011;19433;51.292;6.868;2023-07-31T13:15:19;2.40;;;2.20;;
33074;SDS011;19433;51.292;6.868;2023-07-31T13:17:45;2.23;;;2.03;;
33074;SDS011;19433;51.292;6.868;2023-07-31T13:20:11;2.57;;;2.10;;
33074;SDS011;19433;51.292;6.868;2023-07-31T13:22:36;2.80;;;2.60;;
33074;SDS011;19433;51.292;6.868;2023-07-31T13:25:02;3.43;;;2.83;;
33074;SDS011;19433;51.292;6.868;2023-07-31T13:27:28;3.27;;;2.97;;
33074;SDS011;19433;51.292;6.868;2023-07-31T13:29:53;2.77;;;2.50;;
33074;SDS011;19433;51.292;6.868;2023-07-31T13:32:19;3.37;;;2.20;;
33074;SDS011;19433;51.292;6.868;2023-07-31T13:34:45;2.73;;;2.53;;
33074;SDS011;19433;51.292;6.868;2023-07-31T13:37:11;3.63;;;2.87;;
33074;SDS011;19433;51.292;6.868;2023-07-31T13:39:36;4.13;;;2.43;;
33074;SDS011;19433;51.292;6.868;2023-07-31T13:42:02;3.00;;;2.53;;
33074;SDS011;19433;51.292;6.868;2023-07-31T13:44:28;4.03;;;3.53;;
33074;SDS011;19433;51.292;6.868;2023-07-31T13:46:54;3.40;;;2.30;;
33074;SDS011;19433;51.292;6.868;2023-07-31T13:49:19;2.93;;;2.73;;
33074;SDS011;19433;51.292;6.868;2023-07-31T13:51:44;3.17;;;2.87;;
33074;SDS011;19433;51.292;6.868;2023-07-31T13:54:09;3.97;;;2.90;;
33074;SDS011;19433;51.292;6.868;2023-07-31T13:56:36;4.50;;;2.70;;
33074;SDS011;19433;51.292;6.868;2023-07-31T13:59:02;4.70;;;2.87;;
33074;SDS011;19433;51.292;6.868;2023-07-31T14:01:27;4.23;;;3.43;;
33074;SDS011;19433;51.292;6.868;2023-07-31T14:03:53;2.50;;;2.30;;
33074;SDS011;19433;51.292;6.868;2023-07-31T14:06:18;5.30;;;2.47;;
33074;SDS011;19433;51.292;6.868;2023-07-31T14:08:44;3.60;;;2.90;;
33074;SDS011;19433;51.292;6.868;2023-07-31T14:11:09;2.23;;;2.03;;
33074;SDS011;19433;51.292;6.868;2023-07-31T14:13:34;4.17;;;2.40;;
33074;SDS011;19433;51.292;6.868;2023-07-31T14:16:00;3.30;;;2.77;;
33074;SDS011;19433;51.292;6.868;2023-07-31T14:18:25;3.10;;;2.80;;
33074;SDS011;19433;51.292;6.868;2023-07-31T14:20:51;2.30;;;2.10;;
33074;SDS011;19433;51.292;6.868;2023-07-31T14:23:16;2.90;;;2.60;;
33074;SDS011;19433;51.292;6.868;2023-07-31T14:25:41;3.10;;;2.90;;
33074;SDS011;19433;51.292;6.868;2023-07-31T14:28:07;2.80;;;2.20;;
33074;SDS011;19433;51.292;6.868;2023-07-31T14:30:32;2.50;;;2.30;;
33074;SDS011;19433;51.292;6.868;2023-07-31T14:32:57;2.83;;;2.33;;
33074;SDS011;19433;51.292;6.868;2023-07-31T14:35:23;3.37;;;2.73;;
33074;SDS011;19433;51.292;6.868;2023-07-31T14:37:48;2.90;;;2.60;;
33074;SDS011;19433;51.292;6.868;2023-07-31T14:40:13;3.70;;;2.60;;
33074;SDS011;19433;51.292;6.868;2023-07-31T14:42:39;3.50;;;3.00;;
33074;SDS011;19433;51.292;6.868;2023-07-31T14:45:05;2.90;;;2.57;;
33074;SDS011;19433;51.292;6.868;2023-07-31T14:47:32;2.33;;;2.20;;
33074;SDS011;19433;51.292;6.868;2023-07-31T14:49:58;2.83;;;2.40;;
33074;SDS011;19433;51.292;6.868;2023-07-31T14:52:24;3.50;;;3.20;;
33074;SDS011;19433;51.292;6.868;2023-07-31T14:54:50;3.50;;;3.20;;
33074;SDS011;19433;51.292;6.868;2023-07-31T14:57:15;4.23;;;3.23;;
33074;SDS011;19433;51.292;6.868;2023-07-31T14:59:41;3.33;;;3.00;;